logo
Search for airport 
image banner adimage banner adimage banner ad
image banner ad

LKJE - Jesenik

Located in Jesenik, Czech Republic

ICAO - , IATA -

Data provided by Airmate  

General information

Coordinates: N50°13'18" E17°11'12"
Elevation is 1511 feet MSL.
 
View others Airports in Olomouc Region

Operational data

Special qualification required
Current time UTC:
Current local time:
Weather at : - ( 0 km )
METAR: ZMCK 200630Z 27009MPS 9999 FEW033 SCT100 16/M02 Q1000 NOSIG
View NOTAMs / SUP AIP / TFR affecting this airport [VIEW]
Communications frequencies: [VIEW]

Runways:

Airport contact information

Address: Jesenik Czech Republic

Satellite view of LKJE